Time;durP1;ratioP1;P1;durP2;ratioP2;P2;SDS_P1;SDS_P2;PMS_P1;PMS_P2;Temp;Humidity;BMP_temperature;BMP_pressure;BME280_temperature;BME280_humidity;BME280_pressure;Samples;Min_cycle;Max_cycle;Signal;HPM_P1;HPM_P2
2023/01/21 00:00:07;;;;;;;39.10;23.37;;;-2.80;99.90;;;;;;5048416;28;20317;-68
2023/01/21 00:02:34;;;;;;;35.47;20.73;;;-2.70;99.90;;;;;;5047038;28;20204;-68
2023/01/21 00:05:01;;;;;;;34.73;20.63;;;-2.80;99.90;;;;;;5049777;28;20729;-68
2023/01/21 00:07:28;;;;;;;34.17;21.33;;;-2.80;99.90;;;;;;5046420;28;20226;-68
2023/01/21 00:09:55;;;;;;;35.90;21.13;;;-2.70;99.90;;;;;;5048233;28;20282;-68
2023/01/21 00:12:23;;;;;;;34.33;21.63;;;-2.70;99.90;;;;;;5052987;28;20238;-68
2023/01/21 00:14:50;;;;;;;33.33;21.47;;;-2.80;99.90;;;;;;5049248;28;20231;-68
2023/01/21 00:17:17;;;;;;;32.47;20.70;;;-2.80;99.90;;;;;;5045712;28;20231;-68
2023/01/21 00:19:44;;;;;;;34.73;21.93;;;-2.80;99.90;;;;;;5046357;28;20241;-68
2023/01/21 00:22:11;;;;;;;32.87;20.43;;;-2.90;99.90;;;;;;5045759;28;20243;-68
2023/01/21 00:24:38;;;;;;;32.13;20.00;;;-3.00;99.90;;;;;;5046866;28;20248;-68
2023/01/21 00:27:04;;;;;;;32.17;20.40;;;-2.90;99.90;;;;;;5046432;28;20718;-68
2023/01/21 00:29:33;;;;;;;34.27;21.17;;;-2.90;99.90;;;;;;5050610;28;20237;-69
2023/01/21 00:32:00;;;;;;;30.67;19.87;;;-3.00;99.90;;;;;;5060660;28;20310;-68
2023/01/21 00:34:26;;;;;;;30.07;19.60;;;-3.00;99.90;;;;;;5051673;28;20282;-67
2023/01/21 00:36:53;;;;;;;31.73;20.13;;;-3.00;99.90;;;;;;5054126;28;20302;-67
2023/01/21 00:39:20;;;;;;;33.77;21.37;;;-3.00;99.90;;;;;;5059853;28;20657;-67
2023/01/21 00:41:47;;;;;;;34.57;19.80;;;-2.80;99.90;;;;;;5043687;28;20254;-67
2023/01/21 00:44:15;;;;;;;34.00;21.43;;;-2.90;99.90;;;;;;5054680;28;20230;-67
2023/01/21 00:46:43;;;;;;;36.30;21.93;;;-2.90;99.90;;;;;;5052116;28;20586;-67
2023/01/21 00:49:10;;;;;;;34.33;21.77;;;-2.90;99.90;;;;;;5050622;28;20242;-69
2023/01/21 00:51:37;;;;;;;35.13;21.47;;;-3.10;99.90;;;;;;5046688;28;20705;-69
2023/01/21 00:54:04;;;;;;;36.07;22.53;;;-3.20;99.90;;;;;;5059856;28;20281;-69
2023/01/21 00:56:31;;;;;;;37.57;22.50;;;-3.10;99.90;;;;;;5048923;28;20234;-67
2023/01/21 00:58:58;;;;;;;33.97;22.40;;;-3.30;99.90;;;;;;5047367;28;20235;-70
2023/01/21 01:01:25;;;;;;;37.43;22.57;;;-3.40;99.90;;;;;;5046342;28;20246;-67
2023/01/21 01:03:54;;;;;;;35.67;21.17;;;-3.40;99.90;;;;;;5060739;28;20256;-67
2023/01/21 01:06:22;;;;;;;33.97;20.57;;;-3.30;99.90;;;;;;5052746;28;20210;-67
2023/01/21 01:08:50;;;;;;;34.77;21.63;;;-3.30;99.90;;;;;;5057014;28;20274;-67
2023/01/21 01:11:20;;;;;;;37.07;22.60;;;-3.30;99.90;;;;;;5048522;28;20245;-67
2023/01/21 01:13:47;;;;;;;39.67;22.70;;;-3.30;99.90;;;;;;5058304;28;20202;-67
2023/01/21 01:16:15;;;;;;;36.27;22.63;;;-3.30;99.90;;;;;;5053782;28;20292;-66
2023/01/21 01:18:43;;;;;;;38.53;22.87;;;-3.20;99.90;;;;;;5047574;28;20580;-67
2023/01/21 01:21:14;;;;;;;35.27;23.37;;;-3.10;99.90;;;;;;5046824;28;21006;-68
2023/01/21 01:23:42;;;;;;;35.77;23.80;;;-3.10;99.90;;;;;;5045318;28;20280;-67
2023/01/21 01:26:12;;;;;;;37.43;24.27;;;-3.00;99.90;;;;;;5059271;28;20222;-68
2023/01/21 01:28:39;;;;;;;40.27;23.47;;;-2.90;99.90;;;;;;5047131;28;20261;-67
2023/01/21 01:31:09;;;;;;;38.10;24.90;;;-2.90;99.90;;;;;;5048937;28;20294;-67
2023/01/21 01:33:36;;;;;;;39.33;24.30;;;-2.80;99.90;;;;;;5047042;28;20229;-67
2023/01/21 01:36:05;;;;;;;39.60;24.97;;;-2.70;99.90;;;;;;5059374;28;20233;-66
2023/01/21 01:38:34;;;;;;;44.93;27.20;;;-2.80;99.90;;;;;;5059344;28;20430;-67
2023/01/21 01:41:01;;;;;;;43.83;26.87;;;-2.70;99.90;;;;;;5047768;28;20581;-70
2023/01/21 01:43:55;;;;;;;44.90;27.80;;;-2.60;99.90;;;;;;5047311;28;20261;-68
2023/01/21 01:46:22;;;;;;;39.37;25.90;;;-2.40;99.90;;;;;;5051274;28;20238;-68
2023/01/21 01:48:54;;;;;;;35.73;23.37;;;-2.40;99.90;;;;;;5045645;28;20238;-68
2023/01/21 01:51:26;;;;;;;42.40;24.03;;;-2.30;99.90;;;;;;5051899;28;20286;-69
2023/01/21 01:53:54;;;;;;;37.00;21.97;;;-2.30;99.90;;;;;;5045247;28;20205;-67
2023/01/21 01:56:22;;;;;;;34.33;21.80;;;-2.30;99.90;;;;;;5058395;28;20351;-68
2023/01/21 01:58:49;;;;;;;34.20;21.40;;;-2.20;99.90;;;;;;5050530;28;20199;-67
2023/01/21 02:01:16;;;;;;;35.70;21.50;;;-2.10;99.90;;;;;;5051659;28;20309;-70
2023/01/21 02:03:53;;;;;;;38.07;23.07;;;-2.00;99.90;;;;;;5056596;28;20220;-70
2023/01/21 02:06:20;;;;;;;37.77;21.60;;;-1.90;99.90;;;;;;5049202;28;20661;-67
2023/01/21 02:08:48;;;;;;;36.73;22.23;;;-1.90;99.90;;;;;;5051411;28;20285;-68
2023/01/21 02:11:18;;;;;;;35.87;23.03;;;-1.90;99.90;;;;;;5048706;28;20295;-68
2023/01/21 02:13:48;;;;;;;33.43;21.83;;;-1.70;99.90;;;;;;5053605;28;20241;-69
2023/01/21 02:16:30;;;;;;;37.60;22.03;;;-1.70;99.90;;;;;;5049474;28;20237;-69
2023/01/21 02:19:08;;;;;;;33.03;21.13;;;-1.70;99.90;;;;;;5055094;28;20299;-70
2023/01/21 02:21:54;;;;;;;36.50;22.60;;;-1.80;99.90;;;;;;5049697;28;20763;-70
2023/01/21 02:24:56;;;;;;;33.73;21.23;;;-1.80;99.90;;;;;;5043502;28;20290;-68
2023/01/21 02:27:47;;;;;;;37.40;21.20;;;-1.80;99.90;;;;;;5051682;28;20278;-68
2023/01/21 02:30:51;;;;;;;35.67;21.10;;;-1.80;99.90;;;;;;5051961;28;20230;-69
2023/01/21 02:33:43;;;;;;;37.73;22.57;;;-1.70;99.90;;;;;;5059530;28;20662;-69
2023/01/21 02:36:23;;;;;;;35.83;20.40;;;-1.60;99.90;;;;;;5052348;28;20222;-70
2023/01/21 02:38:57;;;;;;;37.50;22.13;;;-1.70;99.90;;;;;;5062813;28;20237;-69
2023/01/21 02:41:33;;;;;;;35.73;22.43;;;-1.60;99.90;;;;;;5061254;28;20227;-70
2023/01/21 02:44:07;;;;;;;41.63;22.20;;;-1.60;99.90;;;;;;5062030;28;20214;-69
2023/01/21 02:46:40;;;;;;;41.23;23.83;;;-1.50;99.90;;;;;;5052663;28;20206;-70
2023/01/21 02:49:15;;;;;;;43.53;25.03;;;-1.40;99.90;;;;;;5066633;28;20202;-69
2023/01/21 02:51:47;;;;;;;40.20;22.27;;;-1.40;99.90;;;;;;5058015;28;20213;-70
2023/01/21 02:54:15;;;;;;;40.60;22.23;;;-1.50;99.90;;;;;;5057298;28;20210;-69
2023/01/21 02:56:44;;;;;;;41.07;23.97;;;-1.50;99.90;;;;;;5055480;28;20369;-69
2023/01/21 02:59:11;;;;;;;38.53;22.07;;;-1.30;99.90;;;;;;5043470;28;20218;-69
2023/01/21 03:01:48;;;;;;;39.43;20.67;;;-1.30;99.90;;;;;;5055868;28;20226;-69
2023/01/21 03:04:33;;;;;;;43.17;23.50;;;-1.30;99.90;;;;;;5057892;28;20207;-69
2023/01/21 03:07:07;;;;;;;38.47;23.07;;;-1.30;99.90;;;;;;5046472;28;20222;-69
2023/01/21 03:09:35;;;;;;;41.43;22.17;;;-1.20;99.90;;;;;;5065244;28;20598;-69
2023/01/21 03:12:17;;;;;;;39.77;22.70;;;-1.30;99.90;;;;;;5058175;28;20210;-69
2023/01/21 03:17:41;;;;;;;39.80;22.27;;;-1.30;99.90;;;;;;5060059;28;20675;-70
2023/01/21 03:20:12;;;;;;;41.97;22.10;;;-1.20;99.90;;;;;;5062047;28;20229;-69
2023/01/21 03:22:41;;;;;;;50.87;20.87;;;-0.90;99.90;;;;;;5055777;28;20566;-69
2023/01/21 03:25:11;;;;;;;41.20;18.97;;;-0.70;99.90;;;;;;5059951;28;20653;-69
2023/01/21 03:27:42;;;;;;;41.27;22.33;;;-0.70;99.90;;;;;;5060854;28;20195;-69
2023/01/21 03:30:13;;;;;;;45.23;23.73;;;-0.60;99.90;;;;;;5053015;28;20210;-69
2023/01/21 03:32:43;;;;;;;42.13;24.03;;;-0.60;99.90;;;;;;5053253;28;20207;-70
2023/01/21 03:35:14;;;;;;;45.57;23.93;;;-0.60;99.90;;;;;;5053105;28;20472;-69
2023/01/21 03:37:46;;;;;;;43.77;22.67;;;-0.50;99.90;;;;;;5059497;28;20203;-70
2023/01/21 03:40:20;;;;;;;39.07;22.47;;;-0.50;99.90;;;;;;5057871;28;20211;-70
2023/01/21 03:42:49;;;;;;;43.60;20.70;;;-0.50;99.90;;;;;;5059279;28;20763;-69
2023/01/21 03:45:20;;;;;;;40.43;21.07;;;-0.50;99.90;;;;;;5065281;28;20264;-70
2023/01/21 03:47:54;;;;;;;41.63;22.37;;;-0.50;99.90;;;;;;5056658;28;20217;-70
2023/01/21 03:50:27;;;;;;;36.60;20.17;;;-0.40;99.90;;;;;;5056390;28;20203;-70
2023/01/21 03:52:54;;;;;;;38.90;21.60;;;-0.50;99.90;;;;;;5051457;28;20202;-69
2023/01/21 03:55:22;;;;;;;40.77;22.07;;;-0.50;99.90;;;;;;5052536;28;20214;-69
2023/01/21 03:57:48;;;;;;;42.27;20.33;;;-0.60;99.90;;;;;;5070514;28;20210;-69
2023/01/21 04:00:16;;;;;;;36.70;20.93;;;-0.60;99.90;;;;;;5061852;28;20198;-69
2023/01/21 04:02:43;;;;;;;37.47;19.40;;;-0.60;99.90;;;;;;5052682;28;20219;-70
2023/01/21 04:05:10;;;;;;;35.67;18.13;;;-0.50;99.90;;;;;;5051627;28;20203;-69
2023/01/21 04:07:38;;;;;;;34.67;18.17;;;-0.50;99.90;;;;;;5058213;28;20198;-69
2023/01/21 04:10:06;;;;;;;37.50;18.17;;;-0.50;99.90;;;;;;5061608;28;20667;-69
2023/01/21 04:12:33;;;;;;;34.93;19.97;;;-0.50;99.90;;;;;;5066249;28;20198;-70
2023/01/21 04:15:00;;;;;;;38.27;19.20;;;-0.60;99.90;;;;;;5061652;28;20592;-69
2023/01/21 04:17:27;;;;;;;38.40;18.33;;;-0.50;99.90;;;;;;5052332;28;20672;-69
2023/01/21 04:19:54;;;;;;;36.03;18.23;;;-0.40;99.90;;;;;;5057590;28;20283;-69
2023/01/21 04:22:21;;;;;;;33.83;17.43;;;-0.50;99.90;;;;;;5059316;28;20257;-69
2023/01/21 04:24:49;;;;;;;35.13;19.27;;;-0.50;99.90;;;;;;5049758;28;20221;-69
2023/01/21 04:27:16;;;;;;;32.10;19.00;;;-0.50;99.90;;;;;;5067596;28;20234;-69
2023/01/21 04:29:43;;;;;;;35.27;19.27;;;-0.50;99.90;;;;;;5058493;28;20206;-69
2023/01/21 04:32:09;;;;;;;31.10;17.20;;;-0.50;99.90;;;;;;5057132;28;20198;-70
2023/01/21 04:34:36;;;;;;;34.37;16.43;;;-0.50;99.90;;;;;;5065318;28;20191;-69
2023/01/21 04:37:03;;;;;;;37.50;19.73;;;-0.50;99.90;;;;;;5054410;28;20214;-69
2023/01/21 04:39:30;;;;;;;34.63;17.57;;;-0.50;99.90;;;;;;5053131;28;20210;-70
2023/01/21 04:41:58;;;;;;;38.50;20.57;;;-0.50;99.90;;;;;;5064032;28;20226;-70
2023/01/21 04:44:24;;;;;;;33.33;18.97;;;-0.50;99.90;;;;;;5059330;28;20211;-70
2023/01/21 04:46:51;;;;;;;34.47;17.43;;;-0.50;99.90;;;;;;5065278;28;20213;-69
2023/01/21 04:49:18;;;;;;;33.07;18.10;;;-0.50;99.90;;;;;;5058472;28;20559;-70
2023/01/21 04:51:45;;;;;;;34.03;17.47;;;-0.50;99.90;;;;;;5056114;28;20641;-70
2023/01/21 04:54:11;;;;;;;32.47;17.53;;;-0.50;99.90;;;;;;5059796;28;20213;-69
2023/01/21 04:56:38;;;;;;;36.10;18.60;;;-0.40;99.90;;;;;;5059904;28;20206;-70
2023/01/21 04:59:06;;;;;;;34.73;18.30;;;-0.40;99.90;;;;;;5059695;28;20568;-69
2023/01/21 05:01:33;;;;;;;35.47;17.87;;;-0.50;99.90;;;;;;5050089;28;20223;-69
2023/01/21 05:04:00;;;;;;;30.77;19.10;;;-0.40;99.90;;;;;;5060089;28;20561;-70
2023/01/21 05:06:27;;;;;;;32.40;18.30;;;-0.40;99.90;;;;;;5051936;28;20203;-70
2023/01/21 05:08:53;;;;;;;31.70;16.80;;;-0.40;99.90;;;;;;5051425;28;20203;-69
2023/01/21 05:11:20;;;;;;;32.53;18.33;;;-0.40;99.90;;;;;;5049914;28;20199;-70
2023/01/21 05:13:47;;;;;;;36.67;18.97;;;-0.40;99.90;;;;;;5055424;28;20213;-69
2023/01/21 05:16:15;;;;;;;35.60;18.57;;;-0.40;99.90;;;;;;5060227;28;20210;-69
2023/01/21 05:18:44;;;;;;;32.53;18.50;;;-0.40;99.90;;;;;;5052216;28;20673;-69
2023/01/21 05:21:11;;;;;;;35.50;18.27;;;-0.30;99.90;;;;;;5062013;28;20214;-69
2023/01/21 05:23:38;;;;;;;34.53;18.83;;;-0.30;99.90;;;;;;5058310;28;20708;-70
2023/01/21 05:26:05;;;;;;;38.07;18.97;;;-0.30;99.90;;;;;;5054259;28;20664;-69
2023/01/21 05:28:32;;;;;;;33.80;18.87;;;-0.30;99.90;;;;;;5057848;28;20199;-70
2023/01/21 05:31:01;;;;;;;34.63;20.33;;;-0.30;99.90;;;;;;5064627;28;20586;-69
2023/01/21 05:33:31;;;;;;;35.77;19.43;;;-0.30;99.90;;;;;;5055778;28;20256;-69
2023/01/21 05:35:57;;;;;;;38.27;18.93;;;-0.30;99.90;;;;;;5065370;28;20202;-69
2023/01/21 05:38:24;;;;;;;31.77;16.67;;;-0.30;99.90;;;;;;5056951;28;20305;-70
2023/01/21 05:40:56;;;;;;;32.47;18.07;;;-0.30;99.90;;;;;;5061922;28;20202;-69
2023/01/21 05:43:23;;;;;;;34.13;20.07;;;-0.20;99.90;;;;;;5060187;28;20215;-69
2023/01/21 05:45:49;;;;;;;33.90;17.10;;;-0.20;99.90;;;;;;5054727;28;20199;-69
2023/01/21 05:48:16;;;;;;;32.23;16.63;;;-0.20;99.90;;;;;;5057328;28;20202;-69
2023/01/21 05:50:44;;;;;;;32.63;16.67;;;-0.20;99.90;;;;;;5059604;28;20563;-69
2023/01/21 05:53:11;;;;;;;32.77;16.83;;;-0.10;99.90;;;;;;5053139;28;20218;-69
2023/01/21 05:55:38;;;;;;;33.27;16.97;;;-0.10;99.90;;;;;;5063527;28;20565;-69
2023/01/21 05:58:05;;;;;;;35.00;17.33;;;-0.20;99.90;;;;;;5051024;28;20612;-70
2023/01/21 06:00:32;;;;;;;29.77;16.07;;;-0.20;99.90;;;;;;5049244;28;20213;-69
2023/01/21 06:03:00;;;;;;;33.43;16.97;;;-0.20;99.90;;;;;;5048522;28;20215;-69
2023/01/21 06:05:27;;;;;;;32.87;16.30;;;-0.20;99.90;;;;;;5054534;28;20199;-68
2023/01/21 06:07:56;;;;;;;33.70;16.93;;;-0.20;99.90;;;;;;5055740;28;20589;-69
2023/01/21 06:10:22;;;;;;;37.27;17.90;;;-0.10;99.90;;;;;;5050556;28;20202;-69
2023/01/21 06:12:50;;;;;;;32.97;16.47;;;-0.10;99.90;;;;;;5065908;28;20205;-70
2023/01/21 06:15:17;;;;;;;32.80;17.33;;;-0.10;99.90;;;;;;5061637;28;20661;-69
2023/01/21 06:17:44;;;;;;;36.47;17.43;;;-0.10;99.90;;;;;;5065678;28;20636;-69
2023/01/21 06:20:11;;;;;;;33.37;16.20;;;0.00;99.90;;;;;;5062151;28;20564;-69
2023/01/21 06:22:38;;;;;;;32.17;15.67;;;0.00;99.90;;;;;;5068531;28;20677;-69
2023/01/21 06:25:07;;;;;;;33.40;16.03;;;0.00;99.90;;;;;;5063773;28;20206;-69
2023/01/21 06:27:36;;;;;;;32.37;15.90;;;0.00;99.90;;;;;;5061878;28;20569;-69
2023/01/21 06:30:03;;;;;;;30.47;15.33;;;0.00;99.90;;;;;;5058430;28;20213;-69
2023/01/21 06:32:30;;;;;;;34.30;17.23;;;0.10;99.90;;;;;;5055013;28;20623;-69
2023/01/21 06:34:57;;;;;;;33.20;17.03;;;0.10;99.90;;;;;;5055784;28;20480;-70
2023/01/21 06:37:24;;;;;;;30.97;15.97;;;0.10;99.90;;;;;;5054449;28;20203;-69
2023/01/21 06:39:50;;;;;;;32.87;17.30;;;0.10;99.90;;;;;;5052557;28;20214;-69
2023/01/21 06:42:18;;;;;;;33.13;15.43;;;0.10;99.90;;;;;;5054391;28;20238;-69
2023/01/21 06:44:46;;;;;;;31.00;14.83;;;0.10;99.90;;;;;;5054367;28;20203;-69
2023/01/21 06:47:13;;;;;;;32.37;15.50;;;0.20;99.90;;;;;;5053844;28;20210;-69
2023/01/21 06:49:40;;;;;;;32.27;16.03;;;0.10;99.90;;;;;;5049373;28;20199;-69
2023/01/21 06:52:07;;;;;;;36.63;17.27;;;0.20;99.90;;;;;;5048539;28;20199;-69
2023/01/21 06:54:33;;;;;;;34.27;18.40;;;0.20;99.90;;;;;;5058219;28;20221;-70
2023/01/21 06:57:00;;;;;;;33.50;18.00;;;0.20;99.90;;;;;;5052181;28;20211;-69
2023/01/21 06:59:28;;;;;;;35.07;17.73;;;0.20;99.90;;;;;;5053122;28;20214;-69
2023/01/21 07:01:57;;;;;;;31.70;15.57;;;0.20;99.90;;;;;;5051185;28;20540;-69
2023/01/21 07:04:24;;;;;;;31.30;14.60;;;0.30;99.90;;;;;;5054486;28;20539;-68
2023/01/21 07:06:51;;;;;;;27.17;12.67;;;0.30;99.90;;;;;;5050640;28;20203;-69
2023/01/21 07:09:18;;;;;;;31.00;11.77;;;0.20;99.90;;;;;;5047720;28;20639;-68
2023/01/21 07:11:45;;;;;;;30.10;13.10;;;0.20;99.90;;;;;;5053578;28;20607;-69
2023/01/21 07:14:12;;;;;;;37.40;16.40;;;0.20;99.90;;;;;;5047277;28;20195;-69
2023/01/21 07:16:40;;;;;;;33.40;15.63;;;0.20;99.90;;;;;;5052402;28;20203;-68
2023/01/21 07:19:07;;;;;;;33.87;16.10;;;0.20;99.90;;;;;;5053898;28;20204;-70
2023/01/21 07:21:33;;;;;;;35.53;15.57;;;0.20;99.90;;;;;;5045809;28;20215;-69
2023/01/21 07:24:00;;;;;;;36.03;18.60;;;0.10;99.90;;;;;;5051362;28;20700;-69
2023/01/21 07:26:27;;;;;;;36.83;18.47;;;0.10;99.90;;;;;;5046777;28;20203;-71
2023/01/21 07:28:54;;;;;;;32.33;15.17;;;0.10;99.90;;;;;;5050234;28;20199;-71
2023/01/21 07:31:20;;;;;;;34.97;17.73;;;0.10;99.90;;;;;;5047801;28;20225;-70
2023/01/21 07:33:48;;;;;;;37.07;17.43;;;0.10;99.90;;;;;;5051089;28;20672;-70
2023/01/21 07:36:15;;;;;;;35.03;14.67;;;0.10;99.90;;;;;;5051756;28;20674;-70
2023/01/21 07:38:42;;;;;;;31.87;13.13;;;0.10;99.90;;;;;;5043854;28;20665;-71
2023/01/21 07:41:09;;;;;;;33.00;15.40;;;0.10;99.90;;;;;;5048557;28;20466;-70
2023/01/21 07:43:36;;;;;;;33.17;12.57;;;0.00;99.90;;;;;;5046638;28;20233;-72
2023/01/21 07:46:02;;;;;;;29.33;12.17;;;0.10;99.90;;;;;;5042882;28;20211;-71
2023/01/21 07:48:29;;;;;;;31.20;12.90;;;0.00;99.90;;;;;;5048497;28;20195;-70
2023/01/21 07:50:59;;;;;;;32.50;14.73;;;0.00;99.90;;;;;;5047501;28;20219;-72
2023/01/21 07:53:26;;;;;;;28.60;13.37;;;0.00;99.90;;;;;;5051689;28;20558;-71
2023/01/21 07:55:53;;;;;;;29.10;13.77;;;0.00;99.90;;;;;;5048951;28;20388;-71
2023/01/21 07:58:20;;;;;;;31.33;13.27;;;0.00;99.90;;;;;;5048216;28;20206;-70
2023/01/21 08:00:46;;;;;;;29.90;13.23;;;0.00;99.90;;;;;;5043938;28;20215;-70
2023/01/21 08:03:13;;;;;;;29.33;12.67;;;0.00;99.90;;;;;;5047502;28;20688;-70
2023/01/21 08:05:40;;;;;;;30.83;12.73;;;0.00;99.90;;;;;;5044673;28;20206;-71
2023/01/21 08:08:08;;;;;;;32.13;15.67;;;0.00;99.90;;;;;;5039699;28;20203;-72
2023/01/21 08:10:35;;;;;;;31.77;14.03;;;0.00;99.90;;;;;;5045030;28;20207;-70
2023/01/21 08:13:02;;;;;;;26.40;11.47;;;0.10;99.90;;;;;;5051057;28;20206;-70
2023/01/21 08:15:29;;;;;;;33.13;14.03;;;0.00;99.90;;;;;;5049010;28;20730;-71
2023/01/21 08:17:56;;;;;;;25.40;11.20;;;0.00;99.90;;;;;;5040915;28;20206;-70
2023/01/21 08:20:23;;;;;;;29.60;14.80;;;0.00;99.90;;;;;;5043617;28;20237;-70
2023/01/21 08:22:50;;;;;;;29.87;13.37;;;0.10;99.90;;;;;;5038449;28;20306;-71
2023/01/21 08:25:19;;;;;;;26.83;12.17;;;0.10;99.90;;;;;;5045031;28;20631;-70
2023/01/21 08:27:46;;;;;;;28.30;11.47;;;0.00;99.90;;;;;;5045166;28;20203;-70
2023/01/21 08:30:14;;;;;;;28.93;10.40;;;0.40;99.90;;;;;;5047616;28;20211;-71
2023/01/21 08:32:41;;;;;;;26.90;11.27;;;0.10;99.90;;;;;;5047809;28;20191;-73
2023/01/21 08:35:09;;;;;;;26.40;10.90;;;0.10;99.90;;;;;;5055223;28;20217;-72
2023/01/21 08:37:36;;;;;;;27.40;11.07;;;0.10;99.90;;;;;;5063370;28;20206;-71
2023/01/21 08:40:02;;;;;;;29.40;13.53;;;0.10;99.90;;;;;;5058902;28;20223;-72
2023/01/21 08:42:31;;;;;;;27.93;13.10;;;0.10;99.90;;;;;;5040902;28;20559;-72
2023/01/21 08:44:57;;;;;;;31.83;14.37;;;0.10;99.90;;;;;;5050424;28;20199;-71
2023/01/21 08:47:24;;;;;;;30.50;12.70;;;0.10;99.90;;;;;;5046532;28;20207;-72
2023/01/21 08:49:51;;;;;;;28.37;12.30;;;0.20;99.90;;;;;;5056624;28;20199;-72
2023/01/21 08:52:19;;;;;;;35.23;14.60;;;0.20;99.90;;;;;;5046065;28;20203;-68
2023/01/21 08:54:46;;;;;;;31.87;15.23;;;0.20;99.90;;;;;;5057684;28;20285;-68
2023/01/21 08:57:14;;;;;;;30.30;15.90;;;0.20;99.90;;;;;;5059754;28;20433;-68
2023/01/21 08:59:42;;;;;;;33.57;14.63;;;0.20;99.90;;;;;;5049929;28;20683;-68
2023/01/21 09:02:11;;;;;;;29.90;14.30;;;0.20;99.90;;;;;;5055555;28;20573;-69
2023/01/21 09:04:38;;;;;;;30.23;15.83;;;0.20;99.90;;;;;;5062563;28;20222;-68
2023/01/21 09:07:05;;;;;;;33.97;14.57;;;0.20;99.90;;;;;;5071021;28;20675;-69
2023/01/21 09:09:32;;;;;;;30.43;13.73;;;0.20;99.90;;;;;;5059848;28;20233;-69
2023/01/21 09:11:58;;;;;;;26.60;14.20;;;0.20;99.90;;;;;;5058105;28;20571;-68
2023/01/21 09:14:27;;;;;;;28.87;15.13;;;0.30;99.90;;;;;;5067036;28;20199;-68
2023/01/21 09:16:55;;;;;;;32.27;14.93;;;0.30;99.90;;;;;;5053550;28;20661;-68
2023/01/21 09:19:22;;;;;;;31.30;13.20;;;0.30;99.90;;;;;;5060526;28;20587;-71
2023/01/21 09:21:51;;;;;;;28.97;13.20;;;0.30;99.90;;;;;;5047191;28;20727;-71
2023/01/21 09:24:18;;;;;;;27.00;12.63;;;0.40;99.90;;;;;;5044281;28;20228;-70
2023/01/21 09:26:44;;;;;;;28.40;13.07;;;0.40;99.90;;;;;;5047934;28;20205;-71
2023/01/21 09:29:11;;;;;;;31.50;13.20;;;0.40;99.90;;;;;;5047632;28;20207;-70
2023/01/21 09:31:38;;;;;;;28.07;11.70;;;0.40;99.90;;;;;;5045639;28;20215;-71
2023/01/21 09:34:08;;;;;;;32.27;12.77;;;0.40;99.90;;;;;;5045972;28;20199;-70
2023/01/21 09:36:35;;;;;;;26.03;13.17;;;0.40;99.90;;;;;;5048077;28;20202;-68
2023/01/21 09:39:03;;;;;;;28.50;12.23;;;0.50;99.90;;;;;;5049322;28;20584;-68
2023/01/21 09:41:35;;;;;;;29.07;15.00;;;0.50;99.90;;;;;;5047980;28;20198;-68
2023/01/21 09:44:13;;;;;;;28.33;12.77;;;0.60;99.90;;;;;;5047516;28;20230;-68
2023/01/21 09:46:46;;;;;;;30.07;13.70;;;0.50;99.90;;;;;;5041661;28;20214;-69
2023/01/21 09:49:19;;;;;;;34.00;14.80;;;0.60;99.90;;;;;;5052168;28;20209;-68
2023/01/21 09:51:50;;;;;;;33.50;15.43;;;0.60;99.90;;;;;;5048117;28;20203;-68
2023/01/21 09:54:23;;;;;;;31.20;13.97;;;0.70;99.90;;;;;;5054690;28;20199;-69
2023/01/21 09:57:05;;;;;;;32.90;15.90;;;0.70;99.90;;;;;;5046560;28;20231;-69
2023/01/21 09:59:47;;;;;;;32.87;15.97;;;0.60;99.90;;;;;;5044742;28;20552;-69
2023/01/21 10:02:21;;;;;;;33.07;15.63;;;0.70;99.90;;;;;;5050498;28;20660;-69
2023/01/21 10:04:58;;;;;;;33.80;14.77;;;0.70;99.90;;;;;;5050796;28;20221;-69
2023/01/21 10:07:33;;;;;;;30.93;16.03;;;0.60;99.90;;;;;;5041703;28;20206;-69
2023/01/21 10:10:13;;;;;;;31.13;15.37;;;0.80;99.90;;;;;;5047402;28;20652;-69
2023/01/21 10:12:58;;;;;;;28.73;14.13;;;0.80;99.90;;;;;;5045651;28;20203;-69
2023/01/21 10:15:44;;;;;;;32.83;14.90;;;0.80;99.90;;;;;;5045236;28;20665;-69
2023/01/21 10:18:13;;;;;;;28.57;14.70;;;0.80;99.90;;;;;;5047898;28;20202;-68
2023/01/21 10:20:45;;;;;;;29.43;14.03;;;0.90;99.90;;;;;;5049960;28;20202;-68
2023/01/21 10:23:16;;;;;;;30.67;14.70;;;0.80;99.90;;;;;;5049582;28;20226;-68
2023/01/21 10:25:46;;;;;;;29.33;15.30;;;1.00;99.90;;;;;;5046619;28;20207;-69
2023/01/21 10:28:19;;;;;;;30.43;15.27;;;1.00;99.90;;;;;;5042557;28;20432;-69
2023/01/21 10:30:50;;;;;;;29.77;14.53;;;1.00;99.90;;;;;;5050852;28;20206;-69
2023/01/21 10:33:20;;;;;;;29.43;13.30;;;1.00;99.90;;;;;;5047548;28;20214;-69
2023/01/21 10:36:09;;;;;;;28.83;12.30;;;1.10;99.90;;;;;;5047691;28;20203;-69
2023/01/21 10:38:41;;;;;;;28.03;12.23;;;1.10;99.90;;;;;;5048900;28;20214;-69
2023/01/21 10:41:24;;;;;;;27.43;12.73;;;1.20;99.90;;;;;;5041043;28;20203;-69
2023/01/21 10:44:00;;;;;;;26.77;14.00;;;1.20;99.90;;;;;;5041587;28;20225;-68
2023/01/21 10:46:35;;;;;;;28.23;13.43;;;1.30;99.90;;;;;;5046012;28;20645;-68
2023/01/21 10:49:18;;;;;;;28.53;12.20;;;1.30;99.90;;;;;;5050309;28;20206;-69
2023/01/21 10:51:53;;;;;;;27.23;11.77;;;1.30;99.90;;;;;;5047549;28;20202;-69
2023/01/21 10:54:29;;;;;;;23.23;10.70;;;1.30;99.90;;;;;;5047782;28;20668;-69
2023/01/21 10:57:04;;;;;;;26.40;12.03;;;1.30;99.90;;;;;;5050290;28;20195;-70
2023/01/21 10:59:34;;;;;;;27.30;12.83;;;1.40;99.90;;;;;;5050136;28;20214;-70
2023/01/21 11:02:21;;;;;;;24.23;11.50;;;1.40;99.90;;;;;;5048576;28;20215;-70
2023/01/21 11:04:48;;;;;;;26.37;12.20;;;1.50;99.90;;;;;;5051419;28;20219;-68
2023/01/21 11:07:20;;;;;;;28.57;13.63;;;1.50;99.90;;;;;;5045124;28;20199;-68
2023/01/21 11:09:48;;;;;;;27.00;12.57;;;1.60;99.90;;;;;;5047554;28;20621;-68
2023/01/21 11:12:19;;;;;;;25.73;11.40;;;1.50;99.90;;;;;;5056461;28;20249;-68
2023/01/21 11:14:50;;;;;;;26.93;12.43;;;1.50;99.90;;;;;;5043738;28;20290;-69
2023/01/21 11:17:31;;;;;;;25.50;12.00;;;1.50;99.90;;;;;;5047741;28;20254;-68
2023/01/21 11:19:59;;;;;;;27.60;11.43;;;1.50;99.90;;;;;;5053792;28;20578;-68
2023/01/21 11:22:31;;;;;;;23.90;10.73;;;1.50;99.90;;;;;;5052654;28;20222;-68
2023/01/21 11:24:59;;;;;;;24.53;11.90;;;1.50;99.90;;;;;;5051752;28;20320;-69
2023/01/21 11:27:33;;;;;;;27.03;11.40;;;1.60;99.90;;;;;;5050155;28;20516;-68
2023/01/21 11:30:01;;;;;;;24.93;11.87;;;1.50;99.90;;;;;;5051355;28;20455;-68
2023/01/21 11:32:30;;;;;;;22.43;10.33;;;1.60;99.90;;;;;;5038666;28;20203;-68
2023/01/21 11:35:03;;;;;;;27.80;11.70;;;1.50;99.90;;;;;;5044668;28;20261;-69
2023/01/21 11:37:33;;;;;;;26.10;12.80;;;1.60;99.90;;;;;;5041551;28;20203;-68
2023/01/21 11:40:05;;;;;;;23.23;10.60;;;1.60;99.90;;;;;;5044974;28;20424;-70
2023/01/21 11:42:32;;;;;;;23.33;11.43;;;1.60;99.90;;;;;;5050100;28;20648;-71
2023/01/21 11:45:03;;;;;;;26.23;13.50;;;1.60;99.90;;;;;;5049107;28;20951;-70
2023/01/21 11:47:35;;;;;;;26.00;13.50;;;1.60;99.90;;;;;;5047525;28;20207;-70
2023/01/21 11:50:10;;;;;;;23.40;10.80;;;1.60;99.90;;;;;;5049178;28;20728;-70
2023/01/21 11:52:38;;;;;;;24.40;12.37;;;1.60;99.90;;;;;;5049284;28;20226;-71
2023/01/21 11:55:18;;;;;;;26.90;12.37;;;1.60;99.90;;;;;;5048616;28;20206;-71
2023/01/21 11:57:50;;;;;;;24.43;11.07;;;1.70;99.90;;;;;;5051717;28;20282;-71
2023/01/21 12:00:19;;;;;;;25.27;11.47;;;1.70;99.90;;;;;;5042873;28;20210;-71
2023/01/21 12:02:50;;;;;;;25.13;12.00;;;1.80;99.90;;;;;;5048821;28;20206;-71
2023/01/21 12:05:25;;;;;;;26.43;12.93;;;1.80;99.90;;;;;;5048933;28;20262;-71
2023/01/21 12:07:55;;;;;;;27.63;11.53;;;1.80;99.90;;;;;;5051169;28;20290;-70
2023/01/21 12:10:30;;;;;;;27.30;10.63;;;1.80;99.90;;;;;;5047430;28;20238;-70
2023/01/21 12:13:21;;;;;;;24.17;10.67;;;1.90;99.90;;;;;;5047504;28;20615;-70
2023/01/21 12:16:30;;;;;;;26.27;10.13;;;1.90;99.90;;;;;;5051898;28;20244;-70
2023/01/21 12:19:29;;;;;;;24.67;9.80;;;1.90;99.90;;;;;;5043879;28;20253;-70
2023/01/21 12:22:39;;;;;;;26.17;10.87;;;2.10;99.90;;;;;;5039134;28;20293;-71
2023/01/21 12:25:37;;;;;;;24.73;10.90;;;2.10;99.90;;;;;;4978954;28;20856;-71
2023/01/21 12:28:25;;;;;;;25.17;10.83;;;2.10;99.90;;;;;;4986131;28;20288;-71
2023/01/21 12:31:01;;;;;;;23.27;9.50;;;2.10;99.90;;;;;;5026162;28;20234;-71
2023/01/21 12:33:44;;;;;;;23.03;9.53;;;2.10;99.90;;;;;;5045767;28;20195;-70
2023/01/21 12:36:17;;;;;;;21.90;9.30;;;2.10;99.90;;;;;;5045342;28;20290;-70
2023/01/21 12:38:49;;;;;;;24.47;10.70;;;2.10;99.90;;;;;;5048972;28;20297;-71
2023/01/21 12:41:23;;;;;;;22.40;10.03;;;2.10;99.90;;;;;;5048962;28;20273;-70
2023/01/21 12:43:54;;;;;;;26.80;10.10;;;2.10;99.90;;;;;;5046522;28;20293;-70
2023/01/21 12:46:24;;;;;;;20.60;8.97;;;2.10;99.90;;;;;;5046610;28;20207;-70
2023/01/21 12:48:56;;;;;;;24.70;10.37;;;2.10;99.90;;;;;;5048883;28;20282;-70
2023/01/21 12:51:27;;;;;;;26.67;10.27;;;2.10;99.90;;;;;;5044604;28;20226;-70